Time;durP1;ratioP1;P1;durP2;ratioP2;P2;SDS_P1;SDS_P2;PMS_P1;PMS_P2;Temp;Humidity;BMP_temperature;BMP_pressure;BME280_temperature;BME280_humidity;BME280_pressure;Samples;Min_cycle;Max_cycle;Signal;HPM_P1;HPM_P2
2022/07/07 00:00:32;;;;;;;;;;;19.50;98.10;;;;;;5072524;28;19924;-76
2022/07/07 00:02:58;;;;;;;;;;;19.40;98.40;;;;;;5069905;28;19947;-77
2022/07/07 00:05:25;;;;;;;;;;;19.40;99.20;;;;;;5071492;28;19924;-76
2022/07/07 00:07:53;;;;;;;;;;;19.40;99.20;;;;;;5052741;28;19928;-76
2022/07/07 00:10:20;;;;;;;;;;;19.40;99.30;;;;;;5087174;28;19924;-77
2022/07/07 00:12:48;;;;;;;;;;;19.30;99.10;;;;;;5091927;28;19928;-77
2022/07/07 00:15:14;;;;;;;;;;;19.40;99.60;;;;;;5091708;28;20018;-76
2022/07/07 00:17:41;;;;;;;;;;;19.30;99.70;;;;;;5091537;28;20384;-76
2022/07/07 00:20:08;;;;;;;;;;;19.30;99.90;;;;;;5091378;28;19924;-77
2022/07/07 00:22:35;;;;;;;;;;;19.30;99.90;;;;;;5091033;28;19946;-77
2022/07/07 00:25:03;;;;;;;;;;;19.30;99.90;;;;;;5092245;28;19969;-77
2022/07/07 00:27:30;;;;;;;;;;;19.30;99.90;;;;;;5073838;28;19920;-77
2022/07/07 00:29:56;;;;;;;;;;;19.30;99.90;;;;;;5063038;28;19988;-77
2022/07/07 00:32:23;;;;;;;;;;;19.30;99.90;;;;;;5091976;28;20297;-77
2022/07/07 00:34:50;;;;;;;;;;;19.30;99.90;;;;;;5091435;28;19927;-77
2022/07/07 00:37:16;;;;;;;;;;;19.30;99.90;;;;;;5074462;28;19924;-77
2022/07/07 00:39:43;;;;;;;;;;;19.20;99.90;;;;;;5072798;28;19935;-76
2022/07/07 00:42:14;;;;;;;;;;;19.20;99.90;;;;;;5090191;28;19931;-77
2022/07/07 00:44:41;;;;;;;;;;;19.50;99.90;;;;;;5072801;28;20190;-77
2022/07/07 00:47:09;;;;;;;;;;;19.20;99.90;;;;;;5084560;28;20026;-77
2022/07/07 00:49:38;;;;;;;;;;;19.20;99.90;;;;;;5091037;28;19924;-77
2022/07/07 00:52:06;;;;;;;;;;;19.20;99.90;;;;;;5090137;28;19920;-77
2022/07/07 00:54:33;;;;;;;;;;;19.10;99.90;;;;;;5090320;28;20283;-77
2022/07/07 00:56:59;;;;;;;;;;;19.10;99.90;;;;;;5090094;28;19927;-77
2022/07/07 00:59:27;;;;;;;;;;;19.10;99.90;;;;;;5085762;28;20407;-77
2022/07/07 01:01:54;;;;;;;;;;;19.10;99.90;;;;;;5088676;28;19928;-76
2022/07/07 01:04:21;;;;;;;;;;;19.10;99.90;;;;;;5093522;28;19924;-77
2022/07/07 01:06:48;;;;;;;;;;;19.10;99.90;;;;;;5094000;28;19931;-77
2022/07/07 01:09:15;;;;;;;;;;;19.10;99.90;;;;;;5091294;28;20030;-77
2022/07/07 01:11:45;;;;;;;;;;;19.10;99.90;;;;;;5090583;28;19924;-77
2022/07/07 01:14:12;;;;;;;;;;;19.10;99.90;;;;;;5087007;28;20226;-77
2022/07/07 01:16:40;;;;;;;;;;;19.10;99.90;;;;;;5072548;28;20394;-76
2022/07/07 01:19:07;;;;;;;;;;;19.10;99.90;;;;;;5089678;28;19920;-76
2022/07/07 01:21:37;;;;;;;;;;;19.10;99.90;;;;;;5088392;28;19931;-77
2022/07/07 01:24:06;;;;;;;;;;;19.00;99.90;;;;;;5088786;28;19924;-77
2022/07/07 01:26:32;;;;;;;;;;;19.00;99.90;;;;;;5075501;28;20299;-77
2022/07/07 01:28:59;;;;;;;;;;;19.00;99.90;;;;;;5095291;28;19931;-77
2022/07/07 01:31:26;;;;;;;;;;;19.00;99.90;;;;;;5099986;28;19957;-76
2022/07/07 01:33:53;;;;;;;;;;;19.00;99.90;;;;;;5080380;28;19958;-77
2022/07/07 01:36:19;;;;;;;;;;;19.00;99.90;;;;;;5081041;28;20160;-76
2022/07/07 01:38:46;;;;;;;;;;;19.00;99.90;;;;;;5095746;28;19924;-77
2022/07/07 01:41:14;;;;;;;;;;;19.00;99.90;;;;;;5083792;28;19935;-77
2022/07/07 01:43:41;;;;;;;;;;;18.90;99.90;;;;;;5085752;28;19946;-77
2022/07/07 01:46:07;;;;;;;;;;;18.90;99.90;;;;;;5090058;28;20347;-77
2022/07/07 01:48:34;;;;;;;;;;;18.90;99.90;;;;;;5090196;28;20344;-77
2022/07/07 01:51:01;;;;;;;;;;;18.90;99.90;;;;;;5089256;28;19927;-77
2022/07/07 01:53:28;;;;;;;;;;;18.90;99.90;;;;;;5073735;28;19981;-76
2022/07/07 01:55:54;;;;;;;;;;;18.80;99.90;;;;;;5089676;28;19924;-76
2022/07/07 01:58:23;;;;;;;;;;;20.40;99.90;;;;;;5089305;28;20376;-77
2022/07/07 02:00:49;;;;;;;;;;;18.80;99.90;;;;;;5088108;28;19924;-76
2022/07/07 02:03:16;;;;;;;;;;;18.80;99.90;;;;;;5068378;28;19928;-77
2022/07/07 02:05:42;;;;;;;;;;;18.70;99.90;;;;;;5070395;28;19928;-76
2022/07/07 02:08:09;;;;;;;;;;;18.70;99.90;;;;;;5088062;28;19924;-77
2022/07/07 02:13:22;;;;;;;;;;;19.40;99.90;;;;;;5091412;28;19916;-76
2022/07/07 02:15:50;;;;;;;;;;;18.60;99.90;;;;;;5089913;28;20003;-75
2022/07/07 02:20:52;;;;;;;;;;;18.60;99.90;;;;;;5024862;28;20012;-78
2022/07/07 02:23:19;;;;;;;;;;;18.60;99.90;;;;;;5029819;28;19928;-77
2022/07/07 02:25:46;;;;;;;;;;;18.60;99.90;;;;;;5050438;28;19936;-76
2022/07/07 02:28:12;;;;;;;;;;;18.60;99.90;;;;;;5035619;28;19928;-75
2022/07/07 02:30:39;;;;;;;;;;;18.50;99.90;;;;;;5027043;28;19925;-77
2022/07/07 02:33:08;;;;;;;;;;;18.50;99.90;;;;;;5028512;28;20086;-76
2022/07/07 02:35:35;;;;;;;;;;;18.50;99.90;;;;;;5045083;28;19929;-76
2022/07/07 02:38:02;;;;;;;;;;;18.00;99.90;;;;;;5027353;28;19921;-76
2022/07/07 02:40:30;;;;;;;;;;;20.20;99.90;;;;;;5028061;28;19983;-76
2022/07/07 02:42:57;;;;;;;;;;;18.50;99.90;;;;;;5027439;28;19921;-76
2022/07/07 02:45:24;;;;;;;;;;;18.50;99.90;;;;;;5029128;28;20020;-75
2022/07/07 02:47:50;;;;;;;;;;;18.50;99.90;;;;;;5033061;28;20393;-76
2022/07/07 02:50:19;;;;;;;;;;;18.60;99.90;;;;;;5034454;28;20384;-75
2022/07/07 02:52:46;;;;;;;;;;;18.60;99.90;;;;;;5034392;28;19987;-78
2022/07/07 02:55:13;;;;;;;;;;;18.60;99.90;;;;;;5034763;28;19944;-76
2022/07/07 02:57:39;;;;;;;;;;;18.70;99.90;;;;;;5027974;28;19928;-77
2022/07/07 03:00:07;;;;;;;;;;;18.70;99.90;;;;;;5012086;28;20296;-78
2022/07/07 03:02:34;;;;;;;;;;;18.70;99.90;;;;;;5011463;28;20400;-77
2022/07/07 03:05:01;;;;;;;;;;;18.80;99.90;;;;;;5023657;28;19924;-77
2022/07/07 03:07:29;;;;;;;;;;;18.80;99.90;;;;;;5030548;28;19979;-78
2022/07/07 03:09:57;;;;;;;;;;;18.80;99.90;;;;;;5032191;28;20298;-77
2022/07/07 03:12:24;;;;;;;;;;;18.90;99.90;;;;;;5010933;28;19925;-77
2022/07/07 03:14:51;;;;;;;;;;;18.90;99.90;;;;;;5029126;28;19932;-76
2022/07/07 03:17:18;;;;;;;;;;;18.90;99.90;;;;;;5010115;28;19925;-77
2022/07/07 03:19:45;;;;;;;;;;;18.90;99.90;;;;;;5037415;28;19983;-77
2022/07/07 03:22:15;;;;;;;;;;;18.90;99.90;;;;;;5035686;28;19924;-78
2022/07/07 03:24:43;;;;;;;;;;;18.90;99.90;;;;;;5050807;28;19925;-77
2022/07/07 03:27:10;;;;;;;;;;;18.90;99.90;;;;;;5031086;28;19925;-78
2022/07/07 03:29:37;;;;;;;;;;;18.80;99.90;;;;;;5029752;28;19990;-77
2022/07/07 03:32:05;;;;;;;;;;;18.80;99.90;;;;;;5014360;28;19921;-78
2022/07/07 03:34:32;;;;;;;;;;;18.80;99.90;;;;;;5030082;28;20357;-77
2022/07/07 03:36:59;;;;;;;;;;;18.80;99.90;;;;;;5029609;28;20418;-78
2022/07/07 03:39:25;;;;;;;;;;;18.80;99.90;;;;;;5029798;28;19937;-78
2022/07/07 03:41:54;;;;;;;;;;;18.80;99.90;;;;;;5030380;28;19932;-78
2022/07/07 03:44:21;;;;;;;;;;;18.80;99.90;;;;;;5030975;28;19971;-78
2022/07/07 03:46:48;;;;;;;;;;;18.80;99.90;;;;;;5030422;28;19932;-78
2022/07/07 03:49:14;;;;;;;;;;;18.80;99.90;;;;;;5030731;28;19924;-78
2022/07/07 03:51:41;;;;;;;;;;;18.80;99.90;;;;;;5030255;28;19932;-78
2022/07/07 03:54:09;;;;;;;;;;;18.80;99.90;;;;;;5030112;28;19928;-78
2022/07/07 03:56:36;;;;;;;;;;;18.80;99.90;;;;;;5046808;28;19944;-78
2022/07/07 03:59:05;;;;;;;;;;;18.80;99.90;;;;;;5035061;28;19925;-78
2022/07/07 04:01:32;;;;;;;;;;;18.80;99.90;;;;;;5030710;28;19933;-77
2022/07/07 04:03:59;;;;;;;;;;;18.80;99.90;;;;;;5029826;28;19924;-77
2022/07/07 04:06:26;;;;;;;;;;;17.20;99.90;;;;;;5029450;28;20335;-77
2022/07/07 04:08:56;;;;;;;;;;;18.80;99.90;;;;;;5029279;28;19955;-77
2022/07/07 04:11:23;;;;;;;;;;;18.80;99.90;;;;;;5032415;28;19924;-77
2022/07/07 04:13:49;;;;;;;;;;;18.80;99.90;;;;;;5049608;28;19955;-76
2022/07/07 04:16:18;;;;;;;;;;;18.80;99.90;;;;;;5053575;28;19925;-76
2022/07/07 04:18:45;;;;;;;;;;;18.90;99.90;;;;;;5044434;28;19928;-77
2022/07/07 04:21:11;;;;;;;;;;;18.90;99.90;;;;;;5046990;28;20108;-77
2022/07/07 04:23:38;;;;;;;;;;;18.90;99.90;;;;;;5029161;28;19924;-77
2022/07/07 04:26:05;;;;;;;;;;;18.90;99.90;;;;;;5033173;28;19928;-78
2022/07/07 04:28:32;;;;;;;;;;;18.90;99.90;;;;;;5029272;28;20028;-78
2022/07/07 04:30:59;;;;;;;;;;;18.90;99.90;;;;;;5026516;28;19925;-79
2022/07/07 04:33:28;;;;;;;;;;;19.00;99.90;;;;;;5039354;28;19921;-78
2022/07/07 04:35:55;;;;;;;;;;;18.90;99.90;;;;;;5054332;28;19967;-78
2022/07/07 04:38:22;;;;;;;;;;;19.00;99.90;;;;;;5033139;28;20020;-77
2022/07/07 04:40:49;;;;;;;;;;;19.00;99.90;;;;;;5030061;28;20074;-78
2022/07/07 04:43:16;;;;;;;;;;;19.00;99.90;;;;;;5022493;28;19925;-78
2022/07/07 04:45:43;;;;;;;;;;;19.00;99.90;;;;;;5047994;28;20000;-80
2022/07/07 04:48:10;;;;;;;;;;;18.90;99.90;;;;;;5035760;28;20021;-80
2022/07/07 04:50:38;;;;;;;;;;;18.90;99.90;;;;;;5048879;28;19997;-79
2022/07/07 04:53:05;;;;;;;;;;;18.90;99.90;;;;;;5044293;28;19921;-79
2022/07/07 04:55:32;;;;;;;;;;;18.90;99.90;;;;;;5038818;28;19953;-80
2022/07/07 04:57:59;;;;;;;;;;;18.80;99.90;;;;;;5035216;28;19947;-77
2022/07/07 05:00:26;;;;;;;;;;;18.90;99.90;;;;;;5030437;28;20337;-78
2022/07/07 05:02:54;;;;;;;;;;;18.80;99.90;;;;;;5027676;28;20616;-77
2022/07/07 05:05:21;;;;;;;;;;;18.90;99.90;;;;;;5046149;28;19928;-79
2022/07/07 05:07:49;;;;;;;;;;;18.90;99.90;;;;;;5013004;28;20441;-76
2022/07/07 05:10:16;;;;;;;;;;;18.90;99.90;;;;;;5008592;28;19925;-76
2022/07/07 05:12:44;;;;;;;;;;;18.90;99.90;;;;;;5042962;28;19922;-76
2022/07/07 05:15:11;;;;;;;;;;;19.00;99.90;;;;;;5025101;28;19956;-75
2022/07/07 05:17:38;;;;;;;;;;;18.90;99.90;;;;;;5034852;28;19921;-74
2022/07/07 05:20:05;;;;;;;;;;;19.00;99.90;;;;;;5028538;28;19925;-75
2022/07/07 05:22:32;;;;;;;;;;;19.00;99.90;;;;;;5028429;28;20403;-75
2022/07/07 05:25:01;;;;;;;;;;;19.00;99.90;;;;;;5036590;28;19925;-74
2022/07/07 05:27:28;;;;;;;;;;;19.00;99.90;;;;;;5066655;28;19925;-75
2022/07/07 05:29:56;;;;;;;;;;;19.10;99.90;;;;;;5062969;28;19931;-77
2022/07/07 05:32:23;;;;;;;;;;;20.40;99.90;;;;;;5029175;28;20381;-77
2022/07/07 05:34:50;;;;;;;;;;;19.20;99.90;;;;;;5062041;28;19929;-76
2022/07/07 05:37:17;;;;;;;;;;;19.30;99.90;;;;;;5027948;28;19925;-77
2022/07/07 05:39:44;;;;;;;;;;;19.20;99.90;;;;;;5057161;28;19941;-78
2022/07/07 05:42:12;;;;;;;;;;;19.20;99.90;;;;;;5031752;28;19929;-79
2022/07/07 05:44:39;;;;;;;;;;;19.10;99.90;;;;;;5032433;28;19941;-79
2022/07/07 05:47:06;;;;;;;;;;;19.10;99.90;;;;;;5032500;28;19921;-79
2022/07/07 05:49:33;;;;;;;;;;;19.00;99.90;;;;;;5042305;28;19932;-79
2022/07/07 05:52:00;;;;;;;;;;;19.00;99.90;;;;;;5032378;28;19925;-78
2022/07/07 05:54:27;;;;;;;;;;;19.10;99.90;;;;;;5029347;28;19932;-78
2022/07/07 05:56:54;;;;;;;;;;;19.30;99.90;;;;;;5028886;28;19920;-78
2022/07/07 05:59:23;;;;;;;;;;;19.40;99.90;;;;;;5029126;28;20382;-78
2022/07/07 06:01:50;;;;;;;;;;;19.50;99.90;;;;;;5064052;28;19944;-80
2022/07/07 06:04:17;;;;;;;;;;;19.60;99.90;;;;;;5032183;28;19967;-79
2022/07/07 06:06:44;;;;;;;;;;;19.50;99.90;;;;;;5049484;28;20019;-74
2022/07/07 06:09:12;;;;;;;;;;;19.50;99.90;;;;;;5063311;28;19925;-74
2022/07/07 06:11:39;;;;;;;;;;;19.40;99.90;;;;;;5064233;28;19921;-78
2022/07/07 06:14:06;;;;;;;;;;;19.50;99.90;;;;;;5047208;28;19935;-77
2022/07/07 06:16:42;;;;;;;;;;;19.60;99.90;;;;;;5019553;28;20065;-76
2022/07/07 06:19:09;;;;;;;;;;;19.70;99.90;;;;;;5016971;28;19988;-77
2022/07/07 06:21:36;;;;;;;;;;;19.70;99.90;;;;;;5033410;28;19972;-78
2022/07/07 06:24:03;;;;;;;;;;;19.80;99.90;;;;;;5045278;28;19972;-79
2022/07/07 06:26:30;;;;;;;;;;;19.80;99.90;;;;;;5025106;28;20277;-78
2022/07/07 06:28:57;;;;;;;;;;;19.80;99.90;;;;;;5038188;28;19944;-78
2022/07/07 06:31:24;;;;;;;;;;;19.90;99.90;;;;;;5041877;28;19921;-79
2022/07/07 06:33:52;;;;;;;;;;;20.10;99.90;;;;;;5026336;28;19926;-79
2022/07/07 06:36:20;;;;;;;;;;;20.20;99.90;;;;;;5030310;28;20355;-79
2022/07/07 06:38:47;;;;;;;;;;;19.50;99.90;;;;;;5036989;28;19922;-78
2022/07/07 06:41:14;;;;;;;;;;;20.40;99.90;;;;;;5041174;28;19940;-79
2022/07/07 06:43:41;;;;;;;;;;;20.40;99.90;;;;;;5036573;28;20042;-77
2022/07/07 06:46:07;;;;;;;;;;;20.40;99.90;;;;;;5025777;28;19948;-78
2022/07/07 06:48:34;;;;;;;;;;;20.40;99.90;;;;;;5048719;28;19931;-77
2022/07/07 06:51:03;;;;;;;;;;;20.40;99.90;;;;;;5047216;28;19932;-74
2022/07/07 06:53:30;;;;;;;;;;;20.50;99.90;;;;;;5047169;28;19925;-77
2022/07/07 06:56:00;;;;;;;;;;;20.70;99.90;;;;;;5032947;28;19932;-78
2022/07/07 06:58:27;;;;;;;;;;;21.10;99.90;;;;;;5036364;28;19928;-75
2022/07/07 07:00:54;;;;;;;;;;;21.40;99.90;;;;;;5031606;28;19928;-75
2022/07/07 07:03:21;;;;;;;;;;;21.80;99.90;;;;;;5036328;28;19921;-73
2022/07/07 07:05:48;;;;;;;;;;;22.10;99.90;;;;;;5045214;28;19921;-73
2022/07/07 07:08:17;;;;;;;;;;;22.10;99.90;;;;;;5066510;28;19925;-77
2022/07/07 07:10:44;;;;;;;;;;;22.00;99.90;;;;;;5051058;28;19998;-75
2022/07/07 07:13:11;;;;;;;;;;;21.90;99.90;;;;;;5051747;28;19924;-75
2022/07/07 07:15:41;;;;;;;;;;;21.90;99.90;;;;;;5066968;28;19927;-78
2022/07/07 07:18:08;;;;;;;;;;;22.70;99.90;;;;;;5050742;28;19920;-74
2022/07/07 07:20:35;;;;;;;;;;;22.90;99.90;;;;;;5037323;28;19929;-74
2022/07/07 07:23:03;;;;;;;;;;;23.90;99.90;;;;;;5041948;28;19972;-74
2022/07/07 07:25:37;;;;;;;;;;;25.60;99.90;;;;;;5025800;28;19931;-74
2022/07/07 07:28:04;;;;;;;;;;;26.10;99.90;;;;;;5028015;28;20443;-75
2022/07/07 07:30:31;;;;;;;;;;;26.60;99.90;;;;;;5029666;28;19925;-73
2022/07/07 07:32:58;;;;;;;;;;;26.70;99.90;;;;;;5029944;28;19921;-74
2022/07/07 07:35:25;;;;;;;;;;;27.00;99.90;;;;;;5032142;28;19925;-74
2022/07/07 07:37:52;;;;;;;;;;;27.00;99.90;;;;;;5030075;28;19950;-74
2022/07/07 07:40:19;;;;;;;;;;;26.80;99.90;;;;;;5030286;28;20528;-74
2022/07/07 07:42:47;;;;;;;;;;;26.40;99.90;;;;;;5046649;28;19925;-74
2022/07/07 07:45:14;;;;;;;;;;;26.00;99.90;;;;;;5030411;28;20272;-74
2022/07/07 07:47:42;;;;;;;;;;;25.80;99.90;;;;;;5046766;28;20011;-75
2022/07/07 07:50:10;;;;;;;;;;;25.50;99.90;;;;;;5029053;28;20012;-75
2022/07/07 07:52:37;;;;;;;;;;;25.30;99.90;;;;;;5032109;28;20079;-75
2022/07/07 07:55:05;;;;;;;;;;;25.30;99.90;;;;;;5031216;28;19921;-75
2022/07/07 07:57:34;;;;;;;;;;;25.30;99.90;;;;;;5068571;28;19928;-77
2022/07/07 08:00:02;;;;;;;;;;;25.20;99.90;;;;;;5033917;28;19986;-74
2022/07/07 08:02:38;;;;;;;;;;;25.00;99.90;;;;;;5039738;28;19983;-74
2022/07/07 08:05:06;;;;;;;;;;;24.60;99.90;;;;;;5062557;28;19929;-74
2022/07/07 08:07:33;;;;;;;;;;;24.10;99.90;;;;;;5062118;28;19965;-75
2022/07/07 08:10:00;;;;;;;;;;;23.80;99.90;;;;;;5009481;28;19976;-75
2022/07/07 08:12:27;;;;;;;;;;;23.70;99.90;;;;;;5009969;28;19976;-75
2022/07/07 08:14:53;;;;;;;;;;;23.60;99.90;;;;;;5010408;28;19925;-76
2022/07/07 08:17:22;;;;;;;;;;;23.50;99.90;;;;;;5010954;28;20388;-75
2022/07/07 08:19:49;;;;;;;;;;;23.30;99.90;;;;;;5008978;28;19932;-75
2022/07/07 08:22:16;;;;;;;;;;;23.30;99.90;;;;;;5009379;28;19925;-73
2022/07/07 08:24:43;;;;;;;;;;;23.50;99.90;;;;;;5012801;28;20285;-73
2022/07/07 08:27:10;;;;;;;;;;;23.70;99.90;;;;;;5044191;28;19925;-73
2022/07/07 08:29:38;;;;;;;;;;;24.10;99.90;;;;;;5029102;28;19932;-75
2022/07/07 08:32:06;;;;;;;;;;;24.50;99.90;;;;;;5030116;28;19921;-74
2022/07/07 08:34:34;;;;;;;;;;;25.10;99.90;;;;;;5029739;28;20407;-75
2022/07/07 08:37:05;;;;;;;;;;;26.00;99.90;;;;;;5029974;28;19921;-75
2022/07/07 08:39:32;;;;;;;;;;;26.90;99.90;;;;;;5028318;28;19925;-75
2022/07/07 08:41:59;;;;;;;;;;;27.10;99.90;;;;;;5028866;28;20249;-76
2022/07/07 08:44:26;;;;;;;;;;;27.40;99.90;;;;;;5029237;28;20296;-76
2022/07/07 08:46:53;;;;;;;;;;;27.20;99.90;;;;;;5029289;28;19961;-75
2022/07/07 08:49:21;;;;;;;;;;;27.00;99.90;;;;;;5033140;28;19925;-75
2022/07/07 08:51:49;;;;;;;;;;;26.80;99.90;;;;;;5034467;28;19928;-75
2022/07/07 08:54:17;;;;;;;;;;;26.70;99.90;;;;;;5029940;28;20312;-75
2022/07/07 08:56:44;;;;;;;;;;;26.60;99.90;;;;;;5029682;28;19984;-75
2022/07/07 08:59:13;;;;;;;;;;;26.10;99.90;;;;;;5028367;28;19921;-75
2022/07/07 09:01:40;;;;;;;;;;;25.90;99.90;;;;;;5028609;28;19960;-75
2022/07/07 09:04:07;;;;;;;;;;;25.30;99.90;;;;;;5028407;28;20405;-74
2022/07/07 09:06:34;;;;;;;;;;;24.80;99.90;;;;;;5028094;28;19986;-74
2022/07/07 09:09:03;;;;;;;;;;;24.40;99.90;;;;;;5048602;28;20309;-74
2022/07/07 09:11:31;;;;;;;;;;;24.10;99.90;;;;;;5049505;28;20430;-74
2022/07/07 09:14:09;;;;;;;;;;;23.80;99.90;;;;;;5048407;28;20416;-75
2022/07/07 09:16:37;;;;;;;;;;;23.50;99.90;;;;;;5048391;28;19963;-75
2022/07/07 09:19:07;;;;;;;;;;;23.10;99.90;;;;;;5048481;28;19924;-75
2022/07/07 09:21:34;;;;;;;;;;;22.80;99.90;;;;;;5048876;28;19921;-75
2022/07/07 09:24:04;;;;;;;;;;;22.50;99.90;;;;;;5064256;28;19925;-75
2022/07/07 09:26:34;;;;;;;;;;;22.10;99.90;;;;;;5048307;28;19925;-75
2022/07/07 09:29:01;;;;;;;;;;;21.90;99.90;;;;;;5048340;28;20338;-74
2022/07/07 09:31:50;;;;;;;;;;;21.80;99.90;;;;;;5047710;28;20356;-75
2022/07/07 09:34:16;;;;;;;;;;;21.60;99.90;;;;;;5031052;28;20419;-75
2022/07/07 09:39:38;;;;;;;;;;;21.20;99.90;;;;;;5037919;28;19931;-74
2022/07/07 09:42:17;;;;;;;;;;;21.10;99.90;;;;;;5030722;28;19995;-74
2022/07/07 09:44:44;;;;;;;;;;;21.00;99.90;;;;;;5036786;28;19941;-74
2022/07/07 09:47:11;;;;;;;;;;;20.90;99.90;;;;;;5019376;28;19937;-75
2022/07/07 09:49:41;;;;;;;;;;;20.80;99.90;;;;;;5023962;28;19932;-76
2022/07/07 09:52:15;;;;;;;;;;;20.50;99.90;;;;;;5023123;28;20008;-76
2022/07/07 09:54:48;;;;;;;;;;;20.40;99.90;;;;;;5021073;28;19925;-74
2022/07/07 09:57:15;;;;;;;;;;;20.60;99.90;;;;;;5023148;28;19925;-74
2022/07/07 09:59:42;;;;;;;;;;;21.20;99.90;;;;;;5018819;28;19925;-75
2022/07/07 10:02:11;;;;;;;;;;;21.80;99.90;;;;;;5026904;28;19921;-74
2022/07/07 10:04:38;;;;;;;;;;;22.70;99.90;;;;;;5044878;28;19931;-75
2022/07/07 10:07:05;;;;;;;;;;;23.40;99.90;;;;;;5044236;28;19932;-75
2022/07/07 10:09:32;;;;;;;;;;;23.80;99.90;;;;;;5026713;28;19925;-75
2022/07/07 10:12:01;;;;;;;;;;;23.80;99.90;;;;;;5028329;28;19920;-75
2022/07/07 10:14:32;;;;;;;;;;;23.20;99.90;;;;;;5028294;28;19940;-75
2022/07/07 10:17:01;;;;;;;;;;;23.00;99.90;;;;;;5030281;28;20301;-73
2022/07/07 10:19:28;;;;;;;;;;;23.10;99.90;;;;;;5027667;28;19928;-74
2022/07/07 10:21:55;;;;;;;;;;;23.60;99.90;;;;;;5043887;28;19928;-74
2022/07/07 10:24:23;;;;;;;;;;;24.20;99.90;;;;;;5027386;28;19929;-75
2022/07/07 10:26:50;;;;;;;;;;;24.60;99.90;;;;;;5044455;28;19928;-75
2022/07/07 10:29:36;;;;;;;;;;;24.50;99.90;;;;;;5027393;28;19921;-75
2022/07/07 10:32:03;;;;;;;;;;;24.20;99.90;;;;;;5043519;28;20337;-74
2022/07/07 10:34:33;;;;;;;;;;;23.70;99.90;;;;;;5043785;28;20479;-74
2022/07/07 10:37:02;;;;;;;;;;;23.30;99.90;;;;;;5044219;28;20284;-75
2022/07/07 10:39:31;;;;;;;;;;;22.90;99.90;;;;;;5043613;28;20348;-75
2022/07/07 10:42:00;;;;;;;;;;;22.90;99.90;;;;;;5043236;28;20454;-74
2022/07/07 10:44:28;;;;;;;;;;;22.70;99.90;;;;;;5027701;28;19921;-75
2022/07/07 10:46:59;;;;;;;;;;;22.50;99.90;;;;;;5029343;28;19932;-74
2022/07/07 10:49:37;;;;;;;;;;;22.20;99.90;;;;;;5027203;28;20047;-75
2022/07/07 10:52:06;;;;;;;;;;;22.10;99.90;;;;;;5044585;28;19925;-74
2022/07/07 10:54:35;;;;;;;;;;;22.00;99.90;;;;;;5028223;28;19928;-75
2022/07/07 10:57:12;;;;;;;;;;;22.00;99.90;;;;;;5028301;28;20031;-76
2022/07/07 10:59:59;;;;;;;;;;;22.00;99.90;;;;;;5031952;28;19921;-76
2022/07/07 11:02:30;;;;;;;;;;;22.10;99.90;;;;;;5044029;28;20368;-77
2022/07/07 11:04:58;;;;;;;;;;;22.50;99.90;;;;;;5029014;28;19921;-76
2022/07/07 11:07:26;;;;;;;;;;;22.60;99.90;;;;;;5027073;28;19975;-76
2022/07/07 11:09:57;;;;;;;;;;;22.50;99.90;;;;;;5019784;28;19944;-76
2022/07/07 11:12:37;;;;;;;;;;;22.20;99.90;;;;;;5028113;28;20433;-76
2022/07/07 11:15:23;;;;;;;;;;;21.80;99.90;;;;;;5025514;28;19931;-76
2022/07/07 11:18:08;;;;;;;;;;;21.40;99.90;;;;;;5034207;28;19925;-77
2022/07/07 11:20:36;;;;;;;;;;;21.10;99.90;;;;;;5042381;28;19940;-78
2022/07/07 11:23:06;;;;;;;;;;;21.00;99.90;;;;;;5036257;28;19929;-77
2022/07/07 11:25:34;;;;;;;;;;;20.90;99.90;;;;;;5035052;28;19925;-77
2022/07/07 11:28:01;;;;;;;;;;;20.90;99.90;;;;;;5033335;28;19932;-76
2022/07/07 11:30:29;;;;;;;;;;;20.90;99.90;;;;;;5053704;28;20021;-77
2022/07/07 11:32:58;;;;;;;;;;;21.00;99.90;;;;;;5052176;28;19925;-76
2022/07/07 11:35:28;;;;;;;;;;;21.20;99.90;;;;;;5037327;28;19925;-77
2022/07/07 11:37:57;;;;;;;;;;;21.90;99.90;;;;;;5030331;28;19921;-76
2022/07/07 11:40:24;;;;;;;;;;;21.90;99.90;;;;;;5031631;28;19927;-76
2022/07/07 11:42:51;;;;;;;;;;;22.60;99.90;;;;;;5031926;28;19929;-78
2022/07/07 11:45:21;;;;;;;;;;;23.40;99.90;;;;;;5030820;28;19925;-77
2022/07/07 11:47:49;;;;;;;;;;;24.00;99.90;;;;;;5034394;28;19944;-77
2022/07/07 11:50:16;;;;;;;;;;;24.30;99.90;;;;;;5031740;28;19944;-77
2022/07/07 11:52:47;;;;;;;;;;;24.20;99.90;;;;;;5048146;28;20326;-78
2022/07/07 11:55:17;;;;;;;;;;;24.00;99.90;;;;;;5039288;28;19955;-77
2022/07/07 11:57:49;;;;;;;;;;;23.50;99.90;;;;;;5039650;28;19928;-76
2022/07/07 12:00:17;;;;;;;;;;;22.90;99.90;;;;;;5043439;28;20389;-77
2022/07/07 12:02:44;;;;;;;;;;;22.30;99.90;;;;;;5047159;28;19951;-76
2022/07/07 12:05:12;;;;;;;;;;;21.80;99.90;;;;;;5037809;28;19929;-80
2022/07/07 12:07:40;;;;;;;;;;;21.50;99.90;;;;;;5039876;28;19963;-77
2022/07/07 12:10:18;;;;;;;;;;;21.30;99.90;;;;;;5022709;28;19922;-77
2022/07/07 12:12:55;;;;;;;;;;;21.30;99.90;;;;;;5021370;28;19921;-76
2022/07/07 12:15:22;;;;;;;;;;;21.50;99.90;;;;;;5042330;28;19984;-77
2022/07/07 12:17:49;;;;;;;;;;;22.00;99.90;;;;;;5038179;28;20241;-76
2022/07/07 12:20:17;;;;;;;;;;;22.60;99.90;;;;;;5033913;28;19921;-75
2022/07/07 12:22:46;;;;;;;;;;;23.20;99.90;;;;;;5037125;28;19920;-80
2022/07/07 12:25:13;;;;;;;;;;;23.60;99.90;;;;;;5034408;28;20386;-78
2022/07/07 12:27:58;;;;;;;;;;;24.10;99.90;;;;;;5052678;28;19925;-78
2022/07/07 12:30:27;;;;;;;;;;;24.40;99.90;;;;;;5053176;28;19921;-77
2022/07/07 12:32:55;;;;;;;;;;;24.50;99.90;;;;;;5051204;28;20304;-78
2022/07/07 12:35:40;;;;;;;;;;;24.40;99.90;;;;;;5051866;28;20437;-77
2022/07/07 12:38:08;;;;;;;;;;;23.60;99.90;;;;;;5051312;28;19975;-78
2022/07/07 12:40:36;;;;;;;;;;;23.50;99.90;;;;;;5051108;28;19951;-77
2022/07/07 12:43:09;;;;;;;;;;;22.90;99.90;;;;;;5041956;28;19921;-79
2022/07/07 12:45:38;;;;;;;;;;;22.40;99.90;;;;;;5052833;28;19933;-77
2022/07/07 12:48:15;;;;;;;;;;;21.60;99.90;;;;;;5051854;28;19929;-78
2022/07/07 12:50:42;;;;;;;;;;;21.60;99.90;;;;;;5046557;28;19955;-78
2022/07/07 12:53:09;;;;;;;;;;;21.40;99.90;;;;;;5039973;28;20292;-77
2022/07/07 12:55:37;;;;;;;;;;;21.40;99.90;;;;;;5044758;28;19928;-77
2022/07/07 12:58:21;;;;;;;;;;;22.00;99.90;;;;;;5030305;28;19929;-76
2022/07/07 13:01:01;;;;;;;;;;;22.00;99.90;;;;;;5061327;28;19932;-76
2022/07/07 13:03:28;;;;;;;;;;;22.70;99.90;;;;;;5026385;28;19991;-76
2022/07/07 13:05:55;;;;;;;;;;;23.30;99.90;;;;;;5040952;28;20540;-76
2022/07/07 13:08:22;;;;;;;;;;;23.80;99.90;;;;;;5032016;28;19932;-77
2022/07/07 13:10:49;;;;;;;;;;;24.20;99.90;;;;;;5057731;28;19919;-74
2022/07/07 13:13:16;;;;;;;;;;;24.50;99.90;;;;;;5047776;28;19982;-76
2022/07/07 13:15:44;;;;;;;;;;;26.30;99.90;;;;;;5070431;28;19908;-75
2022/07/07 13:18:13;;;;;;;;;;;25.10;99.90;;;;;;5055361;28;19925;-76
2022/07/07 13:20:41;;;;;;;;;;;25.10;99.90;;;;;;5037061;28;20012;-76
2022/07/07 13:35:50;;;;;;;;;;;25.30;99.90;;;;;;5033383;28;19936;-78
2022/07/07 13:39:04;;;;;;;;;;;25.90;99.90;;;;;;5029973;28;19936;-78
2022/07/07 13:45:17;;;;;;;;;;;26.40;99.90;;;;;;5038922;28;19952;-77
2022/07/07 13:50:56;;;;;;;;;;;26.60;99.90;;;;;;5033678;28;19953;-78
2022/07/07 13:53:24;;;;;;;;;;;26.60;99.90;;;;;;5043538;28;19992;-80
2022/07/07 13:56:01;;;;;;;;;;;26.30;99.90;;;;;;5044615;28;19983;-80
2022/07/07 13:58:29;;;;;;;;;;;26.10;99.90;;;;;;5048417;28;19947;-79
2022/07/07 14:01:03;;;;;;;;;;;25.90;99.90;;;;;;5032604;28;20032;-79
2022/07/07 14:03:35;;;;;;;;;;;25.90;99.90;;;;;;5030675;28;19929;-80
2022/07/07 14:06:05;;;;;;;;;;;25.80;99.90;;;;;;5029502;28;19929;-79
2022/07/07 14:08:37;;;;;;;;;;;25.80;99.90;;;;;;5032622;28;19920;-80
2022/07/07 14:11:09;;;;;;;;;;;25.60;99.90;;;;;;5038942;28;19921;-79
2022/07/07 14:13:48;;;;;;;;;;;25.60;99.90;;;;;;5037542;28;20008;-79
2022/07/07 14:16:21;;;;;;;;;;;25.20;99.90;;;;;;5055808;28;19935;-79
2022/07/07 14:18:52;;;;;;;;;;;24.80;99.90;;;;;;5046660;28;20020;-79
2022/07/07 14:21:23;;;;;;;;;;;24.80;99.90;;;;;;5050181;28;19932;-78
2022/07/07 14:23:56;;;;;;;;;;;25.00;99.90;;;;;;5050486;28;19924;-78
2022/07/07 14:26:30;;;;;;;;;;;25.30;99.90;;;;;;5046963;28;22782;-78
2022/07/07 14:29:08;;;;;;;;;;;25.40;99.90;;;;;;5032664;28;19921;-78
2022/07/07 14:31:36;;;;;;;;;;;25.20;99.90;;;;;;5027322;28;20385;-76
2022/07/07 14:34:14;;;;;;;;;;;25.10;99.90;;;;;;5029659;28;19928;-77
2022/07/07 14:36:45;;;;;;;;;;;25.00;99.90;;;;;;5037836;28;19925;-76
2022/07/07 14:39:22;;;;;;;;;;;24.90;99.90;;;;;;5064027;28;20065;-76
2022/07/07 14:41:51;;;;;;;;;;;24.80;99.90;;;;;;5017675;28;19921;-76
2022/07/07 14:44:20;;;;;;;;;;;24.60;99.90;;;;;;5032436;28;19932;-76
2022/07/07 14:46:56;;;;;;;;;;;24.30;99.90;;;;;;5039144;28;19921;-77
2022/07/07 14:49:39;;;;;;;;;;;24.20;99.90;;;;;;5036198;28;19932;-76
2022/07/07 14:52:15;;;;;;;;;;;24.10;99.90;;;;;;5039110;28;19929;-77